KOSU/OSU METAR and TAF weather

Enter ICAO airport designator
Station Type Date Time Source
KOSU METAR 2020/11/28 19:53 UTC NOAA

KOSU 281953Z 28008KT 10SM CLR 08/M02 A3016 RMK AO2 SLP217 T00831022


Station Type Date Time Source
KOSU Decoded METAR 2020/11/28 19:53 UTC NOAA

OHIO STATE UNIVERSITY AIRPORT , OH, United States (KOSU) 40-05N 083-05W 280M
Nov 28, 2020 - 02:53 PM EST / 2020.11.28 1953 UTC
Wind: from the W (280 degrees) at 9 MPH (8 KT):0
Visibility: 10 mile(s):0
Sky conditions: clear
Temperature: 46.9 F (8.3 C)
Dew Point: 28.0 F (-2.2 C)
Relative Humidity: 47%
Pressure (altimeter): 30.16 in. Hg (1021 hPa)
ob: KOSU 281953Z 28008KT 10SM CLR 08/M02 A3016 RMK AO2 SLP217 T00831022
cycle: 20

Station Type Date Time Source
KOSU TAF UTC NOAA

Error!

Example: see airport list